sensor_id;sensor_type;location;lat;lon;timestamp;P1;durP1;ratioP1;P2;durP2;ratioP2
69203;SDS011;56317;27.658;85.326;2022-12-18T00:01:27;291.63;;;141.40;;
69203;SDS011;56317;27.658;85.326;2022-12-18T00:03:55;283.80;;;132.82;;
69203;SDS011;56317;27.658;85.326;2022-12-18T00:06:23;302.95;;;142.52;;
69203;SDS011;56317;27.658;85.326;2022-12-18T00:08:52;292.40;;;141.15;;
69203;SDS011;56317;27.658;85.326;2022-12-18T00:11:22;314.65;;;141.20;;
69203;SDS011;56317;27.658;85.326;2022-12-18T00:13:52;273.92;;;129.13;;
69203;SDS011;56317;27.658;85.326;2022-12-18T00:16:21;257.48;;;120.47;;
69203;SDS011;56317;27.658;85.326;2022-12-18T00:18:51;229.45;;;110.22;;
69203;SDS011;56317;27.658;85.326;2022-12-18T00:21:20;227.02;;;110.53;;
69203;SDS011;56317;27.658;85.326;2022-12-18T00:23:48;212.52;;;107.95;;
69203;SDS011;56317;27.658;85.326;2022-12-18T00:26:17;204.20;;;100.45;;
69203;SDS011;56317;27.658;85.326;2022-12-18T00:28:57;202.73;;;98.57;;
69203;SDS011;56317;27.658;85.326;2022-12-18T00:31:26;144.70;;;74.33;;
69203;SDS011;56317;27.658;85.326;2022-12-18T00:33:54;211.30;;;102.57;;
69203;SDS011;56317;27.658;85.326;2022-12-18T00:36:23;195.88;;;101.30;;
69203;SDS011;56317;27.658;85.326;2022-12-18T00:38:53;196.30;;;99.53;;
69203;SDS011;56317;27.658;85.326;2022-12-18T00:41:22;206.23;;;102.97;;
69203;SDS011;56317;27.658;85.326;2022-12-18T00:44:09;206.88;;;104.13;;
69203;SDS011;56317;27.658;85.326;2022-12-18T00:46:38;173.82;;;85.57;;
69203;SDS011;56317;27.658;85.326;2022-12-18T00:49:06;214.00;;;108.18;;
69203;SDS011;56317;27.658;85.326;2022-12-18T00:51:34;210.80;;;105.32;;
69203;SDS011;56317;27.658;85.326;2022-12-18T00:54:01;229.43;;;107.60;;
69203;SDS011;56317;27.658;85.326;2022-12-18T00:56:28;228.70;;;107.50;;
69203;SDS011;56317;27.658;85.326;2022-12-18T00:58:55;239.52;;;109.25;;
69203;SDS011;56317;27.658;85.326;2022-12-18T01:01:23;245.43;;;114.60;;
69203;SDS011;56317;27.658;85.326;2022-12-18T01:03:50;242.77;;;112.68;;
69203;SDS011;56317;27.658;85.326;2022-12-18T01:06:17;248.13;;;109.97;;
69203;SDS011;56317;27.658;85.326;2022-12-18T01:08:44;237.73;;;111.93;;
69203;SDS011;56317;27.658;85.326;2022-12-18T01:11:13;230.23;;;110.15;;
69203;SDS011;56317;27.658;85.326;2022-12-18T01:13:42;223.95;;;105.30;;
69203;SDS011;56317;27.658;85.326;2022-12-18T01:16:14;228.13;;;104.38;;
69203;SDS011;56317;27.658;85.326;2022-12-18T01:18:42;231.00;;;109.80;;
69203;SDS011;56317;27.658;85.326;2022-12-18T01:21:10;224.45;;;109.28;;
69203;SDS011;56317;27.658;85.326;2022-12-18T01:23:40;235.07;;;113.47;;
69203;SDS011;56317;27.658;85.326;2022-12-18T01:26:15;260.60;;;128.50;;
69203;SDS011;56317;27.658;85.326;2022-12-18T01:28:42;258.95;;;132.98;;
69203;SDS011;56317;27.658;85.326;2022-12-18T01:31:23;266.80;;;132.05;;
69203;SDS011;56317;27.658;85.326;2022-12-18T01:33:54;274.70;;;129.30;;
69203;SDS011;56317;27.658;85.326;2022-12-18T01:38:59;248.38;;;124.88;;
69203;SDS011;56317;27.658;85.326;2022-12-18T01:41:29;258.98;;;126.82;;
69203;SDS011;56317;27.658;85.326;2022-12-18T01:52:48;248.88;;;125.10;;
69203;SDS011;56317;27.658;85.326;2022-12-18T01:55:30;225.23;;;121.65;;
69203;SDS011;56317;27.658;85.326;2022-12-18T01:58:01;226.07;;;126.93;;
69203;SDS011;56317;27.658;85.326;2022-12-18T02:00:29;245.23;;;127.20;;
69203;SDS011;56317;27.658;85.326;2022-12-18T02:02:57;256.23;;;130.32;;
69203;SDS011;56317;27.658;85.326;2022-12-18T02:08:03;250.32;;;124.32;;
69203;SDS011;56317;27.658;85.326;2022-12-18T02:11:05;218.45;;;120.60;;
69203;SDS011;56317;27.658;85.326;2022-12-18T02:13:50;232.77;;;124.28;;
69203;SDS011;56317;27.658;85.326;2022-12-18T02:25:04;240.68;;;128.52;;
69203;SDS011;56317;27.658;85.326;2022-12-18T02:27:50;228.63;;;126.63;;
69203;SDS011;56317;27.658;85.326;2022-12-18T02:30:18;238.35;;;127.05;;
69203;SDS011;56317;27.658;85.326;2022-12-18T02:32:50;224.93;;;129.48;;
69203;SDS011;56317;27.658;85.326;2022-12-18T02:35:23;230.80;;;128.52;;
69203;SDS011;56317;27.658;85.326;2022-12-18T02:37:53;238.85;;;127.15;;
69203;SDS011;56317;27.658;85.326;2022-12-18T02:40:23;233.43;;;126.07;;
69203;SDS011;56317;27.658;85.326;2022-12-18T02:42:52;227.13;;;123.20;;
69203;SDS011;56317;27.658;85.326;2022-12-18T02:45:19;230.90;;;122.47;;
69203;SDS011;56317;27.658;85.326;2022-12-18T02:47:48;224.95;;;124.25;;
69203;SDS011;56317;27.658;85.326;2022-12-18T02:50:24;241.05;;;126.00;;
69203;SDS011;56317;27.658;85.326;2022-12-18T02:55:59;243.52;;;128.77;;
69203;SDS011;56317;27.658;85.326;2022-12-18T02:58:56;231.43;;;127.85;;
69203;SDS011;56317;27.658;85.326;2022-12-18T03:01:35;228.90;;;130.18;;
69203;SDS011;56317;27.658;85.326;2022-12-18T03:07:11;226.45;;;128.45;;
69203;SDS011;56317;27.658;85.326;2022-12-18T03:09:43;221.45;;;126.50;;
69203;SDS011;56317;27.658;85.326;2022-12-18T03:12:27;221.30;;;126.07;;
69203;SDS011;56317;27.658;85.326;2022-12-18T03:17:52;219.90;;;126.10;;
69203;SDS011;56317;27.658;85.326;2022-12-18T03:20:25;219.20;;;123.63;;
69203;SDS011;56317;27.658;85.326;2022-12-18T03:23:07;184.40;;;114.47;;
69203;SDS011;56317;27.658;85.326;2022-12-18T03:25:39;178.00;;;106.60;;
69203;SDS011;56317;27.658;85.326;2022-12-18T03:28:09;175.07;;;99.70;;
69203;SDS011;56317;27.658;85.326;2022-12-18T03:30:46;169.30;;;99.85;;
69203;SDS011;56317;27.658;85.326;2022-12-18T03:33:16;175.57;;;102.32;;
69203;SDS011;56317;27.658;85.326;2022-12-18T03:36:08;159.77;;;96.13;;
69203;SDS011;56317;27.658;85.326;2022-12-18T03:38:35;164.93;;;96.68;;
69203;SDS011;56317;27.658;85.326;2022-12-18T03:41:16;141.48;;;94.68;;
69203;SDS011;56317;27.658;85.326;2022-12-18T03:46:43;155.20;;;95.53;;
69203;SDS011;56317;27.658;85.326;2022-12-18T03:49:24;154.60;;;93.18;;
69203;SDS011;56317;27.658;85.326;2022-12-18T03:55:06;134.68;;;87.93;;
69203;SDS011;56317;27.658;85.326;2022-12-18T03:57:35;138.30;;;87.28;;
69203;SDS011;56317;27.658;85.326;2022-12-18T04:00:10;132.43;;;85.57;;
69203;SDS011;56317;27.658;85.326;2022-12-18T04:02:43;126.22;;;81.85;;
69203;SDS011;56317;27.658;85.326;2022-12-18T04:05:16;126.63;;;79.55;;
69203;SDS011;56317;27.658;85.326;2022-12-18T04:07:46;116.65;;;77.30;;
69203;SDS011;56317;27.658;85.326;2022-12-18T04:10:15;126.10;;;77.63;;
69203;SDS011;56317;27.658;85.326;2022-12-18T04:12:43;116.93;;;73.22;;
69203;SDS011;56317;27.658;85.326;2022-12-18T04:15:10;124.93;;;72.38;;
69203;SDS011;56317;27.658;85.326;2022-12-18T04:22:41;114.55;;;73.05;;
69203;SDS011;56317;27.658;85.326;2022-12-18T04:25:08;124.57;;;75.82;;
69203;SDS011;56317;27.658;85.326;2022-12-18T04:27:35;119.30;;;72.65;;
69203;SDS011;56317;27.658;85.326;2022-12-18T04:30:03;103.45;;;71.53;;
69203;SDS011;56317;27.658;85.326;2022-12-18T04:32:30;112.90;;;75.43;;
69203;SDS011;56317;27.658;85.326;2022-12-18T04:34:59;112.07;;;75.05;;
69203;SDS011;56317;27.658;85.326;2022-12-18T04:37:26;131.63;;;85.97;;
69203;SDS011;56317;27.658;85.326;2022-12-18T04:39:54;146.90;;;89.30;;
69203;SDS011;56317;27.658;85.326;2022-12-18T04:42:21;135.23;;;87.38;;
69203;SDS011;56317;27.658;85.326;2022-12-18T04:44:48;130.77;;;85.88;;
69203;SDS011;56317;27.658;85.326;2022-12-18T04:47:15;135.50;;;83.82;;
69203;SDS011;56317;27.658;85.326;2022-12-18T04:49:42;144.73;;;89.25;;
69203;SDS011;56317;27.658;85.326;2022-12-18T04:52:10;131.55;;;88.32;;
69203;SDS011;56317;27.658;85.326;2022-12-18T04:54:37;133.63;;;89.15;;
69203;SDS011;56317;27.658;85.326;2022-12-18T04:57:04;144.02;;;90.55;;
69203;SDS011;56317;27.658;85.326;2022-12-18T04:59:31;142.15;;;89.55;;
69203;SDS011;56317;27.658;85.326;2022-12-18T05:01:59;132.27;;;87.40;;
69203;SDS011;56317;27.658;85.326;2022-12-18T05:04:26;139.82;;;87.05;;
69203;SDS011;56317;27.658;85.326;2022-12-18T05:06:53;128.18;;;87.35;;
69203;SDS011;56317;27.658;85.326;2022-12-18T05:09:20;137.48;;;90.85;;
69203;SDS011;56317;27.658;85.326;2022-12-18T05:11:48;126.55;;;87.25;;
69203;SDS011;56317;27.658;85.326;2022-12-18T05:14:15;137.73;;;89.35;;
69203;SDS011;56317;27.658;85.326;2022-12-18T05:16:42;126.68;;;87.28;;
69203;SDS011;56317;27.658;85.326;2022-12-18T05:19:09;139.77;;;90.60;;
69203;SDS011;56317;27.658;85.326;2022-12-18T05:21:36;137.35;;;93.22;;
69203;SDS011;56317;27.658;85.326;2022-12-18T05:24:04;149.60;;;95.53;;
69203;SDS011;56317;27.658;85.326;2022-12-18T05:26:31;147.73;;;94.53;;
69203;SDS011;56317;27.658;85.326;2022-12-18T05:28:58;143.25;;;95.97;;
69203;SDS011;56317;27.658;85.326;2022-12-18T05:31:25;136.85;;;88.95;;
69203;SDS011;56317;27.658;85.326;2022-12-18T05:33:53;141.93;;;91.60;;
69203;SDS011;56317;27.658;85.326;2022-12-18T05:36:20;140.18;;;88.68;;
69203;SDS011;56317;27.658;85.326;2022-12-18T05:38:48;138.50;;;94.57;;
69203;SDS011;56317;27.658;85.326;2022-12-18T05:41:15;126.55;;;90.18;;
69203;SDS011;56317;27.658;85.326;2022-12-18T05:43:43;136.35;;;97.88;;
69203;SDS011;56317;27.658;85.326;2022-12-18T05:46:14;134.05;;;91.70;;
69203;SDS011;56317;27.658;85.326;2022-12-18T05:48:43;137.90;;;88.97;;
69203;SDS011;56317;27.658;85.326;2022-12-18T05:51:11;138.25;;;91.82;;
69203;SDS011;56317;27.658;85.326;2022-12-18T05:53:40;132.43;;;89.28;;
69203;SDS011;56317;27.658;85.326;2022-12-18T05:56:09;128.82;;;90.82;;
69203;SDS011;56317;27.658;85.326;2022-12-18T06:01:09;123.88;;;86.93;;
69203;SDS011;56317;27.658;85.326;2022-12-18T06:03:41;132.07;;;90.25;;
69203;SDS011;56317;27.658;85.326;2022-12-18T06:06:13;130.68;;;89.05;;
69203;SDS011;56317;27.658;85.326;2022-12-18T06:08:41;125.90;;;85.00;;
69203;SDS011;56317;27.658;85.326;2022-12-18T06:11:08;125.85;;;85.68;;
69203;SDS011;56317;27.658;85.326;2022-12-18T06:13:36;115.68;;;79.88;;
69203;SDS011;56317;27.658;85.326;2022-12-18T06:16:04;128.77;;;88.38;;
69203;SDS011;56317;27.658;85.326;2022-12-18T06:18:32;124.57;;;83.45;;
69203;SDS011;56317;27.658;85.326;2022-12-18T06:21:00;118.35;;;78.82;;
69203;SDS011;56317;27.658;85.326;2022-12-18T06:23:27;102.88;;;75.20;;
69203;SDS011;56317;27.658;85.326;2022-12-18T06:25:58;107.25;;;76.55;;
69203;SDS011;56317;27.658;85.326;2022-12-18T06:28:29;92.03;;;60.53;;
69203;SDS011;56317;27.658;85.326;2022-12-18T06:30:56;86.80;;;58.45;;
69203;SDS011;56317;27.658;85.326;2022-12-18T06:33:25;76.47;;;53.88;;
69203;SDS011;56317;27.658;85.326;2022-12-18T06:36:00;72.40;;;50.25;;
69203;SDS011;56317;27.658;85.326;2022-12-18T06:38:28;71.78;;;49.33;;
69203;SDS011;56317;27.658;85.326;2022-12-18T06:40:56;62.70;;;44.15;;
69203;SDS011;56317;27.658;85.326;2022-12-18T06:43:23;68.13;;;41.58;;
69203;SDS011;56317;27.658;85.326;2022-12-18T06:45:50;75.40;;;46.88;;
69203;SDS011;56317;27.658;85.326;2022-12-18T06:48:23;59.13;;;43.25;;
69203;SDS011;56317;27.658;85.326;2022-12-18T06:50:50;58.95;;;42.15;;
69203;SDS011;56317;27.658;85.326;2022-12-18T06:53:17;64.50;;;45.65;;
69203;SDS011;56317;27.658;85.326;2022-12-18T06:55:45;51.45;;;33.15;;
69203;SDS011;56317;27.658;85.326;2022-12-18T06:58:12;48.67;;;35.08;;
69203;SDS011;56317;27.658;85.326;2022-12-18T07:00:39;44.60;;;31.17;;
69203;SDS011;56317;27.658;85.326;2022-12-18T07:03:06;39.42;;;28.55;;
69203;SDS011;56317;27.658;85.326;2022-12-18T07:05:34;29.25;;;21.48;;
69203;SDS011;56317;27.658;85.326;2022-12-18T07:08:05;32.38;;;19.92;;
69203;SDS011;56317;27.658;85.326;2022-12-18T07:10:32;22.65;;;18.23;;
69203;SDS011;56317;27.658;85.326;2022-12-18T07:12:59;26.85;;;20.48;;
69203;SDS011;56317;27.658;85.326;2022-12-18T07:15:26;33.58;;;22.75;;
69203;SDS011;56317;27.658;85.326;2022-12-18T07:17:54;44.38;;;28.20;;
69203;SDS011;56317;27.658;85.326;2022-12-18T07:20:21;40.90;;;24.83;;
69203;SDS011;56317;27.658;85.326;2022-12-18T07:22:48;32.75;;;22.70;;
69203;SDS011;56317;27.658;85.326;2022-12-18T07:25:19;37.00;;;22.90;;
69203;SDS011;56317;27.658;85.326;2022-12-18T07:27:47;31.90;;;22.67;;
69203;SDS011;56317;27.658;85.326;2022-12-18T07:30:14;34.30;;;23.00;;
69203;SDS011;56317;27.658;85.326;2022-12-18T07:35:10;32.60;;;19.92;;
69203;SDS011;56317;27.658;85.326;2022-12-18T07:37:37;25.15;;;17.75;;
69203;SDS011;56317;27.658;85.326;2022-12-18T07:40:05;28.60;;;18.80;;
69203;SDS011;56317;27.658;85.326;2022-12-18T07:42:32;23.15;;;16.40;;
69203;SDS011;56317;27.658;85.326;2022-12-18T07:45:00;29.85;;;18.63;;
69203;SDS011;56317;27.658;85.326;2022-12-18T07:47:33;25.20;;;17.50;;
69203;SDS011;56317;27.658;85.326;2022-12-18T07:50:04;26.83;;;18.75;;
69203;SDS011;56317;27.658;85.326;2022-12-18T07:52:32;28.75;;;17.90;;
69203;SDS011;56317;27.658;85.326;2022-12-18T07:54:59;27.63;;;17.05;;
69203;SDS011;56317;27.658;85.326;2022-12-18T07:57:26;30.58;;;17.40;;
69203;SDS011;56317;27.658;85.326;2022-12-18T07:59:53;24.70;;;16.95;;
69203;SDS011;56317;27.658;85.326;2022-12-18T08:02:21;24.52;;;19.13;;
69203;SDS011;56317;27.658;85.326;2022-12-18T08:04:49;35.25;;;19.27;;
69203;SDS011;56317;27.658;85.326;2022-12-18T08:07:16;35.35;;;20.90;;
69203;SDS011;56317;27.658;85.326;2022-12-18T08:09:43;39.42;;;27.45;;
69203;SDS011;56317;27.658;85.326;2022-12-18T08:12:10;61.88;;;33.53;;
69203;SDS011;56317;27.658;85.326;2022-12-18T08:14:37;52.30;;;30.20;;
69203;SDS011;56317;27.658;85.326;2022-12-18T08:17:05;52.95;;;29.85;;
69203;SDS011;56317;27.658;85.326;2022-12-18T08:19:32;46.83;;;30.35;;
69203;SDS011;56317;27.658;85.326;2022-12-18T08:21:59;47.92;;;30.98;;
69203;SDS011;56317;27.658;85.326;2022-12-18T08:24:26;44.95;;;29.75;;
69203;SDS011;56317;27.658;85.326;2022-12-18T08:26:54;45.80;;;29.05;;
69203;SDS011;56317;27.658;85.326;2022-12-18T08:29:22;51.40;;;29.80;;
69203;SDS011;56317;27.658;85.326;2022-12-18T08:31:50;49.92;;;29.42;;
69203;SDS011;56317;27.658;85.326;2022-12-18T08:34:17;43.33;;;28.75;;
69203;SDS011;56317;27.658;85.326;2022-12-18T08:36:44;43.70;;;30.20;;
69203;SDS011;56317;27.658;85.326;2022-12-18T08:39:11;56.53;;;30.48;;
69203;SDS011;56317;27.658;85.326;2022-12-18T08:41:39;47.58;;;30.73;;
69203;SDS011;56317;27.658;85.326;2022-12-18T08:44:09;50.42;;;30.17;;
69203;SDS011;56317;27.658;85.326;2022-12-18T08:46:54;47.08;;;29.17;;
69203;SDS011;56317;27.658;85.326;2022-12-18T08:49:22;52.83;;;28.88;;
69203;SDS011;56317;27.658;85.326;2022-12-18T08:51:53;46.13;;;28.38;;
69203;SDS011;56317;27.658;85.326;2022-12-18T08:54:22;45.15;;;29.45;;
69203;SDS011;56317;27.658;85.326;2022-12-18T08:56:50;46.10;;;26.40;;
69203;SDS011;56317;27.658;85.326;2022-12-18T08:59:18;52.08;;;25.70;;
69203;SDS011;56317;27.658;85.326;2022-12-18T09:01:45;39.78;;;24.13;;
69203;SDS011;56317;27.658;85.326;2022-12-18T09:04:13;41.00;;;27.23;;
69203;SDS011;56317;27.658;85.326;2022-12-18T09:06:41;47.65;;;27.48;;
69203;SDS011;56317;27.658;85.326;2022-12-18T09:09:08;35.35;;;24.67;;
69203;SDS011;56317;27.658;85.326;2022-12-18T09:11:36;45.83;;;24.77;;
69203;SDS011;56317;27.658;85.326;2022-12-18T09:14:03;41.63;;;26.08;;
69203;SDS011;56317;27.658;85.326;2022-12-18T09:16:31;39.17;;;26.33;;
69203;SDS011;56317;27.658;85.326;2022-12-18T09:19:00;38.33;;;25.50;;
69203;SDS011;56317;27.658;85.326;2022-12-18T09:21:29;37.75;;;24.38;;
69203;SDS011;56317;27.658;85.326;2022-12-18T09:23:58;47.97;;;26.80;;
69203;SDS011;56317;27.658;85.326;2022-12-18T09:26:26;55.63;;;29.10;;
69203;SDS011;56317;27.658;85.326;2022-12-18T09:28:53;49.30;;;28.80;;
69203;SDS011;56317;27.658;85.326;2022-12-18T09:31:22;44.72;;;26.95;;
69203;SDS011;56317;27.658;85.326;2022-12-18T09:33:50;42.40;;;26.60;;
69203;SDS011;56317;27.658;85.326;2022-12-18T09:36:18;46.20;;;27.00;;
69203;SDS011;56317;27.658;85.326;2022-12-18T09:38:45;62.20;;;29.90;;
69203;SDS011;56317;27.658;85.326;2022-12-18T09:47:10;52.00;;;28.30;;
69203;SDS011;56317;27.658;85.326;2022-12-18T09:49:49;48.30;;;27.95;;
69203;SDS011;56317;27.658;85.326;2022-12-18T09:52:34;42.53;;;28.25;;
69203;SDS011;56317;27.658;85.326;2022-12-18T09:55:10;49.53;;;28.75;;
69203;SDS011;56317;27.658;85.326;2022-12-18T09:57:39;44.53;;;28.13;;
69203;SDS011;56317;27.658;85.326;2022-12-18T10:02:44;39.25;;;27.30;;
69203;SDS011;56317;27.658;85.326;2022-12-18T10:05:13;39.65;;;27.15;;
69203;SDS011;56317;27.658;85.326;2022-12-18T10:08:00;47.38;;;27.63;;
69203;SDS011;56317;27.658;85.326;2022-12-18T10:16:03;47.75;;;29.85;;
69203;SDS011;56317;27.658;85.326;2022-12-18T10:24:38;50.28;;;32.00;;
69203;SDS011;56317;27.658;85.326;2022-12-18T10:27:27;62.05;;;36.33;;
69203;SDS011;56317;27.658;85.326;2022-12-18T10:29:56;52.13;;;35.17;;
69203;SDS011;56317;27.658;85.326;2022-12-18T10:32:24;59.10;;;36.03;;
69203;SDS011;56317;27.658;85.326;2022-12-18T10:34:55;68.55;;;38.97;;
69203;SDS011;56317;27.658;85.326;2022-12-18T10:37:25;53.38;;;34.30;;
69203;SDS011;56317;27.658;85.326;2022-12-18T10:42:33;59.47;;;36.05;;
69203;SDS011;56317;27.658;85.326;2022-12-18T10:45:03;67.60;;;39.13;;
69203;SDS011;56317;27.658;85.326;2022-12-18T10:47:41;74.80;;;38.88;;
69203;SDS011;56317;27.658;85.326;2022-12-18T10:50:32;63.20;;;37.58;;
69203;SDS011;56317;27.658;85.326;2022-12-18T10:53:04;66.40;;;40.45;;
69203;SDS011;56317;27.658;85.326;2022-12-18T10:55:32;74.68;;;42.50;;
69203;SDS011;56317;27.658;85.326;2022-12-18T11:06:22;70.60;;;42.45;;
69203;SDS011;56317;27.658;85.326;2022-12-18T11:09:00;78.93;;;44.33;;
69203;SDS011;56317;27.658;85.326;2022-12-18T11:11:51;83.38;;;43.40;;
69203;SDS011;56317;27.658;85.326;2022-12-18T11:14:27;93.03;;;45.65;;
69203;SDS011;56317;27.658;85.326;2022-12-18T11:16:57;85.43;;;47.13;;
69203;SDS011;56317;27.658;85.326;2022-12-18T11:19:39;91.75;;;46.45;;
69203;SDS011;56317;27.658;85.326;2022-12-18T11:22:20;87.88;;;45.30;;
69203;SDS011;56317;27.658;85.326;2022-12-18T11:27:31;89.80;;;48.15;;
69203;SDS011;56317;27.658;85.326;2022-12-18T11:32:51;93.60;;;49.65;;
69203;SDS011;56317;27.658;85.326;2022-12-18T11:35:56;93.13;;;51.78;;
69203;SDS011;56317;27.658;85.326;2022-12-18T11:38:39;107.43;;;52.42;;
69203;SDS011;56317;27.658;85.326;2022-12-18T11:44:09;153.55;;;84.22;;
69203;SDS011;56317;27.658;85.326;2022-12-18T11:46:49;172.20;;;89.50;;
69203;SDS011;56317;27.658;85.326;2022-12-18T11:49:27;231.25;;;117.85;;
69203;SDS011;56317;27.658;85.326;2022-12-18T11:54:42;177.55;;;95.45;;
69203;SDS011;56317;27.658;85.326;2022-12-18T11:57:19;149.13;;;83.72;;
69203;SDS011;56317;27.658;85.326;2022-12-18T12:05:24;163.20;;;84.55;;
69203;SDS011;56317;27.658;85.326;2022-12-18T12:21:42;193.25;;;95.70;;
69203;SDS011;56317;27.658;85.326;2022-12-18T12:30:16;159.77;;;86.72;;
69203;SDS011;56317;27.658;85.326;2022-12-18T12:38:20;129.85;;;71.80;;
69203;SDS011;56317;27.658;85.326;2022-12-18T12:40:56;140.73;;;73.00;;
69203;SDS011;56317;27.658;85.326;2022-12-18T12:43:52;119.13;;;64.43;;
69203;SDS011;56317;27.658;85.326;2022-12-18T12:46:22;137.65;;;70.97;;
69203;SDS011;56317;27.658;85.326;2022-12-18T12:48:55;159.57;;;85.20;;
69203;SDS011;56317;27.658;85.326;2022-12-18T12:51:29;124.72;;;69.05;;
69203;SDS011;56317;27.658;85.326;2022-12-18T12:54:21;112.10;;;61.35;;
69203;SDS011;56317;27.658;85.326;2022-12-18T13:12:53;119.45;;;63.67;;
69203;SDS011;56317;27.658;85.326;2022-12-18T13:20:48;151.20;;;73.65;;
69203;SDS011;56317;27.658;85.326;2022-12-18T13:23:27;152.93;;;78.18;;
69203;SDS011;56317;27.658;85.326;2022-12-18T13:25:57;164.93;;;78.25;;
69203;SDS011;56317;27.658;85.326;2022-12-18T13:36:52;178.10;;;91.28;;
69203;SDS011;56317;27.658;85.326;2022-12-18T13:39:21;179.32;;;106.57;;
69203;SDS011;56317;27.658;85.326;2022-12-18T13:41:51;224.07;;;112.10;;
69203;SDS011;56317;27.658;85.326;2022-12-18T13:44:32;207.10;;;105.50;;
69203;SDS011;56317;27.658;85.326;2022-12-18T13:47:04;194.52;;;104.57;;
69203;SDS011;56317;27.658;85.326;2022-12-18T13:49:50;204.98;;;101.95;;
69203;SDS011;56317;27.658;85.326;2022-12-18T13:52:22;193.43;;;97.43;;
69203;SDS011;56317;27.658;85.326;2022-12-18T13:54:57;173.77;;;94.05;;
69203;SDS011;56317;27.658;85.326;2022-12-18T13:57:28;193.00;;;97.20;;
69203;SDS011;56317;27.658;85.326;2022-12-18T14:02:49;199.82;;;97.78;;
69203;SDS011;56317;27.658;85.326;2022-12-18T14:05:27;182.43;;;95.78;;
69203;SDS011;56317;27.658;85.326;2022-12-18T14:08:06;194.13;;;97.18;;
69203;SDS011;56317;27.658;85.326;2022-12-18T14:10:43;164.77;;;81.97;;
69203;SDS011;56317;27.658;85.326;2022-12-18T14:13:23;217.50;;;104.90;;
69203;SDS011;56317;27.658;85.326;2022-12-18T14:15:55;203.82;;;104.97;;
69203;SDS011;56317;27.658;85.326;2022-12-18T14:18:33;221.07;;;108.70;;
69203;SDS011;56317;27.658;85.326;2022-12-18T14:21:21;230.82;;;113.15;;
69203;SDS011;56317;27.658;85.326;2022-12-18T14:24:05;209.55;;;115.00;;
69203;SDS011;56317;27.658;85.326;2022-12-18T14:26:49;238.02;;;125.50;;
69203;SDS011;56317;27.658;85.326;2022-12-18T14:29:27;226.63;;;124.60;;
69203;SDS011;56317;27.658;85.326;2022-12-18T14:32:05;207.07;;;115.40;;
69203;SDS011;56317;27.658;85.326;2022-12-18T14:34:37;211.05;;;116.47;;
69203;SDS011;56317;27.658;85.326;2022-12-18T14:37:05;252.75;;;134.23;;
69203;SDS011;56317;27.658;85.326;2022-12-18T14:39:35;270.40;;;147.40;;
69203;SDS011;56317;27.658;85.326;2022-12-18T14:42:02;218.93;;;116.07;;
69203;SDS011;56317;27.658;85.326;2022-12-18T14:44:29;226.93;;;121.85;;
69203;SDS011;56317;27.658;85.326;2022-12-18T14:46:57;221.45;;;117.55;;
69203;SDS011;56317;27.658;85.326;2022-12-18T14:52:02;221.68;;;120.63;;
69203;SDS011;56317;27.658;85.326;2022-12-18T14:54:32;233.40;;;124.03;;
69203;SDS011;56317;27.658;85.326;2022-12-18T14:57:03;241.73;;;126.80;;
69203;SDS011;56317;27.658;85.326;2022-12-18T14:59:31;246.38;;;127.43;;
69203;SDS011;56317;27.658;85.326;2022-12-18T15:02:10;252.00;;;128.25;;
69203;SDS011;56317;27.658;85.326;2022-12-18T15:04:46;249.25;;;127.70;;
69203;SDS011;56317;27.658;85.326;2022-12-18T15:12:35;246.98;;;123.95;;
69203;SDS011;56317;27.658;85.326;2022-12-18T15:20:49;246.73;;;122.20;;
69203;SDS011;56317;27.658;85.326;2022-12-18T15:23:21;250.50;;;119.65;;
69203;SDS011;56317;27.658;85.326;2022-12-18T15:26:04;242.73;;;113.95;;
69203;SDS011;56317;27.658;85.326;2022-12-18T15:33:42;274.60;;;108.43;;
69203;SDS011;56317;27.658;85.326;2022-12-18T15:36:16;225.43;;;102.10;;
69203;SDS011;56317;27.658;85.326;2022-12-18T15:38:47;196.15;;;95.38;;
69203;SDS011;56317;27.658;85.326;2022-12-18T15:41:16;193.70;;;95.38;;
69203;SDS011;56317;27.658;85.326;2022-12-18T15:43:46;216.00;;;98.70;;
69203;SDS011;56317;27.658;85.326;2022-12-18T15:46:15;223.10;;;103.20;;
69203;SDS011;56317;27.658;85.326;2022-12-18T15:48:45;186.10;;;92.57;;
69203;SDS011;56317;27.658;85.326;2022-12-18T15:51:20;178.40;;;88.35;;
69203;SDS011;56317;27.658;85.326;2022-12-18T15:53:56;169.65;;;80.78;;
69203;SDS011;56317;27.658;85.326;2022-12-18T15:56:25;159.77;;;76.47;;
69203;SDS011;56317;27.658;85.326;2022-12-18T15:59:11;174.82;;;76.32;;
69203;SDS011;56317;27.658;85.326;2022-12-18T16:01:40;182.40;;;78.43;;
69203;SDS011;56317;27.658;85.326;2022-12-18T16:04:13;144.85;;;72.07;;
69203;SDS011;56317;27.658;85.326;2022-12-18T16:06:42;148.63;;;72.90;;
69203;SDS011;56317;27.658;85.326;2022-12-18T16:09:10;136.00;;;64.88;;
69203;SDS011;56317;27.658;85.326;2022-12-18T16:11:37;148.15;;;70.57;;
69203;SDS011;56317;27.658;85.326;2022-12-18T16:14:26;136.95;;;69.05;;
69203;SDS011;56317;27.658;85.326;2022-12-18T16:16:56;209.30;;;77.78;;
69203;SDS011;56317;27.658;85.326;2022-12-18T16:19:28;162.45;;;77.45;;
69203;SDS011;56317;27.658;85.326;2022-12-18T16:21:56;165.68;;;80.20;;
69203;SDS011;56317;27.658;85.326;2022-12-18T16:24:25;175.18;;;81.80;;
69203;SDS011;56317;27.658;85.326;2022-12-18T16:26:55;185.82;;;84.50;;
69203;SDS011;56317;27.658;85.326;2022-12-18T16:29:25;168.32;;;81.28;;
69203;SDS011;56317;27.658;85.326;2022-12-18T16:31:56;168.75;;;82.30;;
69203;SDS011;56317;27.658;85.326;2022-12-18T16:34:26;144.35;;;83.05;;
69203;SDS011;56317;27.658;85.326;2022-12-18T16:37:02;145.68;;;81.90;;
69203;SDS011;56317;27.658;85.326;2022-12-18T16:39:31;155.45;;;84.60;;
69203;SDS011;56317;27.658;85.326;2022-12-18T16:42:00;162.45;;;88.20;;
69203;SDS011;56317;27.658;85.326;2022-12-18T16:44:46;192.60;;;93.60;;
69203;SDS011;56317;27.658;85.326;2022-12-18T16:47:14;184.02;;;94.50;;
69203;SDS011;56317;27.658;85.326;2022-12-18T16:49:42;177.23;;;93.05;;
69203;SDS011;56317;27.658;85.326;2022-12-18T16:52:10;202.63;;;93.93;;
69203;SDS011;56317;27.658;85.326;2022-12-18T16:54:38;190.48;;;95.60;;
69203;SDS011;56317;27.658;85.326;2022-12-18T16:57:05;182.13;;;89.95;;
69203;SDS011;56317;27.658;85.326;2022-12-18T16:59:32;187.07;;;92.95;;
69203;SDS011;56317;27.658;85.326;2022-12-18T17:01:59;188.15;;;91.40;;
69203;SDS011;56317;27.658;85.326;2022-12-18T17:04:30;172.73;;;91.15;;
69203;SDS011;56317;27.658;85.326;2022-12-18T17:06:58;176.43;;;91.30;;
69203;SDS011;56317;27.658;85.326;2022-12-18T17:09:25;156.88;;;87.68;;
69203;SDS011;56317;27.658;85.326;2022-12-18T17:11:53;162.07;;;86.32;;